D/T METAR WX W/DIR W/SPE G/SPE TEMP DEWP
23/03/19 12:20 EGNH 231220Z 29010KT 9999 FEW042 09/03 Q1034 WNW (290°) 11.5mph 9°C 3°C
23/03/19 11:20 EGNH 231120Z 30010KT 9999 FEW042 08/03 Q1034 WNW (300°) 11.5mph 8°C 3°C
23/03/19 10:50 EGNH 231050Z 29010KT 9999 FEW040 08/03 Q1034 WNW (290°) 11.5mph 8°C 3°C
23/03/19 10:20 EGNH 231020Z 29011KT 9999 FEW040 08/03 Q1034 WNW (290°) 12.7mph 8°C 3°C
23/03/19 09:20 EGNH 230920Z 29009KT 9999 FEW040 08/03 Q1033 WNW (290°) 10.4mph 8°C 3°C
23/03/19 08:50 EGNH 230850Z 29011KT 9999 FEW040 08/02 Q1033 WNW (290°) 12.7mph 8°C 2°C
23/03/19 08:20 EGNH 230820Z 29010KT CAVOK 07/03 Q1033 WNW (290°) 11.5mph 7°C 3°C
23/03/19 07:50 EGNH 230750Z 29011KT CAVOK 07/02 Q1032 WNW (290°) 12.7mph 7°C 2°C
23/03/19 07:20 EGNH 230720Z 29010KT CAVOK 07/02 Q1032 WNW (290°) 11.5mph 7°C 2°C
23/03/19 06:50 EGNH 230650Z 29010KT CAVOK 07/02 Q1031 WNW (290°) 11.5mph 7°C 2°C
23/03/19 06:20 EGNH 230620Z 29011KT CAVOK 07/02 Q1031 WNW (290°) 12.7mph 7°C 2°C
22/03/19 20:50 EGNH 222050Z 24013KT 9999 SCT033 08/08 Q1026 WSW (240°) 15.0mph 8°C 8°C
22/03/19 20:20 EGNH 222020Z 24012KT 9999 FEW027 08/07 Q1025 WSW (240°) 13.8mph 8°C 7°C
22/03/19 19:50 EGNH 221950Z 25015KT 9999 FEW028 SCT048 08/08 Q1025 WSW (250°) 17.3mph 8°C 8°C
22/03/19 19:20 EGNH 221920Z 25013KT 9999 FEW010 SCT049 08/08 Q1025 WSW (250°) 15.0mph 8°C 8°C
22/03/19 18:50 EGNH 221850Z 24017KT 9999 FEW003 SCT031 BKN040 09/08 Q1024 WSW (240°) 19.6mph 9°C 8°C
22/03/19 18:20 EGNH 221820Z 24017KT 8000 SCT003 BKN020 09/08 Q1024 WSW (240°) 19.6mph 9°C 8°C
22/03/19 17:50 EGNH 221750Z 23019KT 4000 -DZ BR BKN003 09/08 Q1023 -DZ BR SW (230°) 21.9mph 9°C 8°C
22/03/19 17:20 EGNH 221720Z 22016KT 9999 -SHRA FEW006 SCT013 BKN025 09/09 Q1023 -SHRA SW (220°) 18.4mph 9°C 9°C
22/03/19 16:50 EGNH 221650Z 22017KT 9999 -SHRA BKN030 09/08 Q1023 -SHRA SW (220°) 19.6mph 9°C 8°C
22/03/19 16:20 EGNH 221620Z 22019KT 9999 -SHRA FEW016 BKN030 10/08 Q1023 -SHRA SW (220°) 21.9mph 10°C 8°C
22/03/19 15:20 EGNH 221520Z 21014KT 9999 FEW016 BKN031 10/07 Q1023 SSW (210°) 16.1mph 10°C 7°C
22/03/19 14:50 EGNH 221450Z 21018KT 9999 FEW016 BKN037 11/07 Q1023 SSW (210°) 20.7mph 11°C 7°C
22/03/19 14:20 EGNH 221420Z 21017KT 9999 SCT030 BKN041 11/08 Q1023 SSW (210°) 19.6mph 11°C 8°C
22/03/19 13:50 EGNH 221350Z 22018KT 9999 BKN029 11/07 Q1023 SW (220°) 20.7mph 11°C 7°C
22/03/19 13:20 EGNH 221320Z 21016KT 9999 BKN024 11/07 Q1023 SSW (210°) 18.4mph 11°C 7°C
22/03/19 12:50 EGNH 221250Z 22016KT 9999 BKN027 11/07 Q1023 SW (220°) 18.4mph 11°C 7°C
22/03/19 12:20 EGNH 221220Z 22012KT 9999 BKN027 11/08 Q1023 SW (220°) 13.8mph 11°C 8°C
22/03/19 11:50 EGNH 221150Z 20013KT 9999 BKN029 11/08 Q1023 SSW (200°) 15.0mph 11°C 8°C
22/03/19 11:20 EGNH 221120Z 19013KT 9999 BKN028 11/07 Q1023 S (190°) 15.0mph 11°C 7°C
22/03/19 10:50 EGNH 221050Z 19012KT 9999 BKN033 12/07 Q1024 S (190°) 13.8mph 12°C 7°C
22/03/19 09:50 EGNH 220950Z 22012KT 9999 BKN024 10/08 Q1024 SW (220°) 13.8mph 10°C 8°C
22/03/19 08:50 EGNH 220850Z 23014KT 9999 FEW016 SCT024 10/07 Q1025 SW (230°) 16.1mph 10°C 7°C
22/03/19 08:20 EGNH 220820Z 21012KT 9999 FEW016 SCT022 10/08 Q1025 SSW (210°) 13.8mph 10°C 8°C
22/03/19 07:50 EGNH 220750Z 18012KT 9999 FEW016 SCT022 11/08 Q1025 S (180°) 13.8mph 11°C 8°C
22/03/19 07:20 EGNH 220720Z 16010KT 9999 FEW020 SCT028 10/08 Q1024 SSE (160°) 11.5mph 10°C 8°C
22/03/19 06:20 EGNH 220620Z 16009KT 9999 FEW018 BKN030 10/08 Q1025 SSE (160°) 10.4mph 10°C 8°C
21/03/19 20:50 EGNH 212050Z 26003KT 9999 BKN022 10/09 Q1030 W (260°) 3.5mph 10°C 9°C
21/03/19 20:20 EGNH 212020Z 22003KT 9999 BKN022 10/09 Q1030 SW (220°) 3.5mph 10°C 9°C
21/03/19 19:50 EGNH 211950Z 25004KT 9999 BKN024 11/09 Q1030 WSW (250°) 4.6mph 11°C 9°C
21/03/19 19:20 EGNH 211920Z 23003KT 9999 BKN025 10/08 Q1030 SW (230°) 3.5mph 10°C 8°C
21/03/19 18:50 EGNH 211850Z 20001KT 9999 BKN026 11/08 Q1030 SSW (200°) 1.2mph 11°C 8°C
21/03/19 18:20 EGNH 211820Z 00000KT 9999 BKN025 11/09 Q1030 N (0°) 11°C 9°C
21/03/19 17:50 EGNH 211750Z 20001KT 9999 BKN024 11/09 Q1031 SSW (200°) 1.2mph 11°C 9°C
21/03/19 17:20 EGNH 211720Z VRB02KT 9999 BKN024 11/09 Q1031 N (0°) 2.3mph 11°C 9°C
21/03/19 16:50 EGNH 211650Z 22004KT 9999 BKN023 11/09 Q1031 SW (220°) 4.6mph 11°C 9°C
21/03/19 16:20 EGNH 211620Z VRB02KT 9999 BKN022 11/09 Q1031 N (0°) 2.3mph 11°C 9°C
21/03/19 15:50 EGNH 211550Z VRB02KT 9999 BKN022 11/09 Q1031 N (0°) 2.3mph 11°C 9°C
21/03/19 15:20 EGNH 211520Z 21005KT 9999 BKN022 11/09 Q1031 SSW (210°) 5.8mph 11°C 9°C
21/03/19 14:50 EGNH 211450Z 26005KT 9999 BKN023 12/10 Q1031 W (260°) 5.8mph 12°C 10°C
21/03/19 14:20 EGNH 211420Z 25006KT 220V280 9999 FEW015 BKN022 12/10 Q1032 WSW (250°) 6.9mph 12°C 10°C
21/03/19 13:50 EGNH 211350Z 21006KT 9999 FEW015 BKN023 11/10 Q1032 SSW (210°) 6.9mph 11°C 10°C
21/03/19 12:50 EGNH 211250Z 22007KT 9999 FEW012 BKN024 11/10 Q1032 SW (220°) 8.1mph 11°C 10°C
21/03/19 12:20 EGNH 211220Z 21008KT 9999 FEW010 BKN024 10/10 Q1033 SSW (210°) 9.2mph 10°C 10°C
21/03/19 11:20 EGNH 211120Z 24008KT 9999 FEW010 BKN024 10/09 Q1033 WSW (240°) 9.2mph 10°C 9°C
21/03/19 10:50 EGNH 211050Z 24010KT 9999 FEW010 BKN025 09/09 Q1033 WSW (240°) 11.5mph 9°C 9°C
21/03/19 10:20 EGNH 211020Z 25009KT 9999 BKN025 09/09 Q1033 WSW (250°) 10.4mph 9°C 9°C
21/03/19 09:50 EGNH 210950Z 24009KT 9999 FEW002 BKN030 09/09 Q1033 WSW (240°) 10.4mph 9°C 9°C
21/03/19 09:20 EGNH 210920Z 25010KT 9999 FEW002 BKN030 09/09 Q1032 WSW (250°) 11.5mph 9°C 9°C
21/03/19 08:50 EGNH 210850Z 25011KT 9999 SCT002 BKN020 08/08 Q1032 WSW (250°) 12.7mph 8°C 8°C
21/03/19 08:20 EGNH 210820Z 25012KT 1500 BR BKN002 08/08 Q1032 BR WSW (250°) 13.8mph 8°C 8°C
21/03/19 07:50 EGNH 210750Z 24013KT 0300 FG VV/// 08/08 Q1032 FG WSW (240°) 15.0mph 8°C 8°C
21/03/19 07:20 EGNH 210720Z 24012KT 0250 VV/// 08/07 Q1031 WSW (240°) 13.8mph 8°C 7°C
21/03/19 06:50 EGNH 210650Z 24012KT 0300 VV/// 08/07 Q1031 WSW (240°) 13.8mph 8°C 7°C
21/03/19 06:20 EGNH 210620Z 24013KT 0300 VV/// 08/07 Q1031 WSW (240°) 15.0mph 8°C 7°C
20/03/19 20:50 EGNH 202050Z 19007KT 9999 BKN034 10/08 Q1030 S (190°) 8.1mph 10°C 8°C
20/03/19 20:20 EGNH 202020Z 19006KT 9999 BKN036 09/08 Q1030 S (190°) 6.9mph 9°C 8°C
20/03/19 19:50 EGNH 201950Z 21006KT 9999 SCT038 08/07 Q1030 SSW (210°) 6.9mph 8°C 7°C
20/03/19 19:20 EGNH 201920Z 00000KT 9999 SCT038 09/07 Q1030 N (0°) 9°C 7°C
20/03/19 18:50 EGNH 201850Z VRB02KT 9999 SCT031 09/08 Q1030 N (0°) 2.3mph 9°C 8°C
20/03/19 18:20 EGNH 201820Z 25003KT CAVOK 09/08 Q1030 WSW (250°) 3.5mph 9°C 8°C
20/03/19 17:50 EGNH 201750Z 29006KT 250V310 CAVOK 10/08 Q1029 WNW (290°) 6.9mph 10°C 8°C
20/03/19 17:20 EGNH 201720Z 27007KT CAVOK 10/09 Q1029 W (270°) 8.1mph 10°C 9°C
20/03/19 16:20 EGNH 201620Z 26007KT CAVOK 11/09 Q1029 W (260°) 8.1mph 11°C 9°C
20/03/19 15:50 EGNH 201550Z 27008KT CAVOK 11/09 Q1029 W (270°) 9.2mph 11°C 9°C
20/03/19 15:20 EGNH 201520Z 23010KT CAVOK 12/10 Q1029 SW (230°) 11.5mph 12°C 10°C
20/03/19 14:50 EGNH 201450Z 24010KT CAVOK 12/10 Q1030 WSW (240°) 11.5mph 12°C 10°C
20/03/19 14:20 EGNH 201420Z 24008KT 9999 FEW012 11/10 Q1030 WSW (240°) 9.2mph 11°C 10°C
20/03/19 13:50 EGNH 201350Z 23008KT 9999 FEW012 11/10 Q1030 SW (230°) 9.2mph 11°C 10°C
20/03/19 13:20 EGNH 201320Z 23008KT 9999 FEW012 11/10 Q1030 SW (230°) 9.2mph 11°C 10°C
20/03/19 12:50 EGNH 201250Z 22007KT 9999 FEW012 11/10 Q1030 SW (220°) 8.1mph 11°C 10°C
20/03/19 12:20 EGNH 201220Z 20004KT 160V230 9999 FEW010 10/10 Q1030 SSW (200°) 4.6mph 10°C 10°C
20/03/19 11:50 EGNH 201150Z 24004KT 170V290 9000 SCT006 10/09 Q1030 WSW (240°) 4.6mph 10°C 9°C
20/03/19 11:20 EGNH 201120Z VRB02KT 9000 BKN004 09/09 Q1030 N (0°) 2.3mph 9°C 9°C
20/03/19 10:50 EGNH 201050Z VRB03KT 0700 FG VV/// 08/08 Q1030 FG N (0°) 3.5mph 8°C 8°C
20/03/19 10:20 EGNH 201020Z VRB03KT 0400 FG VV/// 08/08 Q1030 FG N (0°) 3.5mph 8°C 8°C
20/03/19 09:50 EGNH 200950Z 24005KT 0200 R28/0650 FG VV/// 08/08 Q1030 FG WSW (240°) 5.8mph 8°C 8°C
20/03/19 09:20 EGNH 200920Z 24007KT 0200 FG VV/// 08/08 Q1030 FG WSW (240°) 8.1mph 8°C 8°C
20/03/19 08:50 EGNH 200850Z 25007KT 2500 1000N BR BKN002 08/08 Q1030 BR WSW (250°) 8.1mph 8°C 8°C
20/03/19 08:20 EGNH 200820Z 24005KT 0800 FG OVC001 09/08 Q1030 FG WSW (240°) 5.8mph 9°C 8°C
20/03/19 07:50 EGNH 200750Z 23005KT 0400 FG OVC001 08/08 Q1030 FG SW (230°) 5.8mph 8°C 8°C
20/03/19 07:20 EGNH 200720Z 20006KT 0400 FG VV/// 08/08 Q1030 FG SSW (200°) 6.9mph 8°C 8°C
20/03/19 06:20 EGNH 200620Z 25004KT 0900 FG VV/// 08/08 Q1029 FG WSW (250°) 4.6mph 8°C 8°C
19/03/19 20:50 EGNH 192050Z 22011KT 9999 FEW010 SCT020 09/08 Q1027 SW (220°) 12.7mph 9°C 8°C
19/03/19 20:20 EGNH 192020Z 21009KT 9999 BKN021 09/08 Q1027 SSW (210°) 10.4mph 9°C 8°C
19/03/19 19:50 EGNH 191950Z 21010KT 9999 BKN020 09/08 Q1026 SSW (210°) 11.5mph 9°C 8°C
19/03/19 19:20 EGNH 191920Z 22011KT 9999 BKN016 08/08 Q1026 SW (220°) 12.7mph 8°C 8°C
19/03/19 18:50 EGNH 191850Z 22014KT 9000 SCT006 BKN016 09/08 Q1026 SW (220°) 16.1mph 9°C 8°C
19/03/19 18:20 EGNH 191820Z 23014KT 2500 -DZ BR BKN002 09/08 Q1026 -DZ BR SW (230°) 16.1mph 9°C 8°C
19/03/19 17:50 EGNH 191750Z 23015KT 2500 -DZ BR BKN002 09/08 Q1026 -DZ BR SW (230°) 17.3mph 9°C 8°C
19/03/19 17:20 EGNH 191720Z 24014KT 3500 -DZ BR FEW002 BKN004 09/08 Q1026 -DZ BR WSW (240°) 16.1mph 9°C 8°C
19/03/19 16:50 EGNH 191650Z 23012KT 3000 -DZ BR OVC003 09/08 Q1025 -DZ BR SW (230°) 13.8mph 9°C 8°C
19/03/19 16:20 EGNH 191620Z 24012KT 2000 -DZ BR SCT002 BKN004 09/09 Q1025 -DZ BR WSW (240°) 13.8mph 9°C 9°C
19/03/19 15:50 EGNH 191550Z 22011KT 9999 BKN006 09/08 Q1025 SW (220°) 12.7mph 9°C 8°C
19/03/19 15:20 EGNH 191520Z 23012KT 9999 BKN005 09/08 Q1025 SW (230°) 13.8mph 9°C 8°C
19/03/19 14:20 EGNH 191420Z 22010KT 9999 SCT019 SCT031 10/08 Q1024 SW (220°) 11.5mph 10°C 8°C
19/03/19 13:50 EGNH 191350Z 22011KT 9999 FEW012 BKN028 10/08 Q1025 SW (220°) 12.7mph 10°C 8°C
19/03/19 13:20 EGNH 191320Z 22010KT 9999 FEW012 BKN028 10/08 Q1025 SW (220°) 11.5mph 10°C 8°C
19/03/19 12:20 EGNH 191220Z 20008KT 9999 FEW010 SCT021 10/09 Q1025 SSW (200°) 9.2mph 10°C 9°C
19/03/19 11:50 EGNH 191150Z 21007KT 9999 FEW009 BKN019 09/09 Q1025 SSW (210°) 8.1mph 9°C 9°C
19/03/19 10:50 EGNH 191050Z 22008KT 9000 FEW009 BKN028 09/09 Q1025 SW (220°) 9.2mph 9°C 9°C
19/03/19 10:20 EGNH 191020Z 23010KT 9000 FEW009 BKN028 09/08 Q1025 SW (230°) 11.5mph 9°C 8°C
19/03/19 09:50 EGNH 190950Z 23010KT 9000 FEW010 BKN028 09/08 Q1025 SW (230°) 11.5mph 9°C 8°C
19/03/19 09:20 EGNH 190920Z 23009KT 9000 FEW010 BKN028 08/08 Q1025 SW (230°) 10.4mph 8°C 8°C
19/03/19 08:50 EGNH 190850Z 23010KT 8000 SCT007 BKN016 08/08 Q1025 SW (230°) 11.5mph 8°C 8°C
19/03/19 08:20 EGNH 190820Z 24010KT 7000 SCT009 BKN014 08/08 Q1025 WSW (240°) 11.5mph 8°C 8°C
19/03/19 07:50 EGNH 190750Z 23010KT 4000 BR BKN004 08/08 Q1024 BR SW (230°) 11.5mph 8°C 8°C
19/03/19 07:20 EGNH 190720Z 23009KT 7000 SCT004 BKN021 08/08 Q1024 SW (230°) 10.4mph 8°C 8°C
19/03/19 06:50 EGNH 190650Z 23009KT 2000 BR -RA OVC004 08/07 Q1024 BR -RA SW (230°) 10.4mph 8°C 7°C
19/03/19 06:20 EGNH 190620Z 23008KT 6000 SCT002 BKN024 08/07 Q1024 SW (230°) 9.2mph 8°C 7°C
18/03/19 20:50 EGNH 182050Z 28006KT 9999 FEW005 BKN034 08/07 Q1022 W (280°) 6.9mph 8°C 7°C
18/03/19 20:20 EGNH 182020Z 28007KT 9999 FEW005 SCT026 08/07 Q1021 W (280°) 8.1mph 8°C 7°C
18/03/19 19:50 EGNH 181950Z 27008KT 9999 SCT006 BKN021 08/07 Q1021 W (270°) 9.2mph 8°C 7°C
18/03/19 19:20 EGNH 181920Z 26012KT 9999 SCT021 08/07 Q1021 W (260°) 13.8mph 8°C 7°C
18/03/19 18:50 EGNH 181850Z 25008KT 9999 FEW010 SCT023 08/07 Q1021 WSW (250°) 9.2mph 8°C 7°C
18/03/19 18:20 EGNH 181820Z 23007KT 1800 DZ BR FEW000 BKN004 08/07 Q1020 DZ BR SW (230°) 8.1mph 8°C 7°C
18/03/19 17:50 EGNH 181750Z 24009KT 7000 BKN002 08/07 Q1020 WSW (240°) 10.4mph 8°C 7°C
18/03/19 17:20 EGNH 181720Z 23011KT 7000 BKN003 08/07 Q1020 SW (230°) 12.7mph 8°C 7°C
18/03/19 16:50 EGNH 181650Z 22010KT 6000 BKN003 08/07 Q1020 SW (220°) 11.5mph 8°C 7°C
18/03/19 16:20 EGNH 181620Z 23010KT 5000 -RA BKN002 08/07 Q1020 -RA SW (230°) 11.5mph 8°C 7°C
18/03/19 15:50 EGNH 181550Z 23011KT 7000 -RA BKN003 08/07 Q1019 -RA SW (230°) 12.7mph 8°C 7°C
18/03/19 14:50 EGNH 181450Z 22009KT 7000 -RA BKN004 07/06 Q1019 -RA SW (220°) 10.4mph 7°C 6°C
18/03/19 14:20 EGNH 181420Z 24011KT 4000 -RA FEW004 BKN006 07/06 Q1019 -RA WSW (240°) 12.7mph 7°C 6°C
18/03/19 13:50 EGNH 181350Z 24009KT 9999 FEW008 SCT025 08/07 Q1019 WSW (240°) 10.4mph 8°C 7°C
18/03/19 13:20 EGNH 181320Z 24010KT 9999 FEW009 SCT025 08/07 Q1019 WSW (240°) 11.5mph 8°C 7°C
18/03/19 12:20 EGNH 181220Z 24009KT 9999 SCT012 BKN028 07/06 Q1019 WSW (240°) 10.4mph 7°C 6°C
18/03/19 11:50 EGNH 181150Z 25011KT 9999 SCT016 BKN020 07/06 Q1019 WSW (250°) 12.7mph 7°C 6°C
18/03/19 11:20 EGNH 181120Z 21007KT 9999 SCT018 BKN022 07/06 Q1019 SSW (210°) 8.1mph 7°C 6°C
18/03/19 10:20 EGNH 181020Z 25009KT 9999 -SHRA FEW007 BKN020 07/05 Q1019 -SHRA WSW (250°) 10.4mph 7°C 5°C
18/03/19 09:50 EGNH 180950Z 25012KT 9999 -SHRA FEW013 BKN026 07/05 Q1019 -SHRA WSW (250°) 13.8mph 7°C 5°C
18/03/19 09:20 EGNH 180920Z 26011KT 9999 FEW012 SCT026 07/04 Q1018 W (260°) 12.7mph 7°C 4°C
18/03/19 08:50 EGNH 180850Z 27013KT 9999 FEW012 SCT025 08/05 Q1018 W (270°) 15.0mph 8°C 5°C
18/03/19 07:50 EGNH 180750Z 26015KT 9999 VCSH FEW016 SCT022 07/03 Q1017 VCSH W (260°) 17.3mph 7°C 3°C
18/03/19 07:20 EGNH 180720Z 27013KT 9999 VCSH FEW012 BKN020 07/05 Q1017 VCSH W (270°) 15.0mph 7°C 5°C